Time;durP1;ratioP1;P1;durP2;ratioP2;P2;SDS_P1;SDS_P2;PMS_P1;PMS_P2;Temp;Humidity;BMP_temperature;BMP_pressure;BME280_temperature;BME280_humidity;BME280_pressure;Samples;Min_cycle;Max_cycle;Signal;HPM_P1;HPM_P2
2023/12/06 00:05:51;;;;;;;12.20;11.80;;;2.10;99.90;;;;;;5105992;28;20361;-90
2023/12/06 00:08:20;;;;;;;12.10;11.70;;;2.10;99.90;;;;;;5106932;28;20316;-91
2023/12/06 00:10:49;;;;;;;12.30;11.90;;;2.00;99.90;;;;;;5106886;28;20236;-90
2023/12/06 00:13:29;;;;;;;12.00;11.60;;;2.00;99.90;;;;;;5106087;28;20255;-91
2023/12/06 00:15:57;;;;;;;12.33;11.93;;;2.00;99.90;;;;;;5106636;28;20268;-91
2023/12/06 00:21:13;;;;;;;11.97;11.57;;;2.00;99.90;;;;;;5100053;28;20238;-91
2023/12/06 00:23:52;;;;;;;11.93;11.53;;;2.00;99.90;;;;;;5086843;28;20266;-88
2023/12/06 00:26:21;;;;;;;12.30;11.90;;;2.00;99.90;;;;;;5085333;28;20273;-88
2023/12/06 00:28:50;;;;;;;12.20;11.80;;;2.00;99.90;;;;;;5084985;28;20226;-85
2023/12/06 00:31:29;;;;;;;12.30;11.90;;;1.90;99.90;;;;;;5083929;28;20234;-87
2023/12/06 00:34:00;;;;;;;12.10;11.70;;;1.90;99.90;;;;;;5084876;28;20222;-87
2023/12/06 00:36:29;;;;;;;12.20;11.80;;;1.90;99.90;;;;;;5084653;28;20234;-86
2023/12/06 00:38:58;;;;;;;11.97;11.57;;;1.90;99.90;;;;;;5085601;28;20237;-86
2023/12/06 00:41:27;;;;;;;12.23;11.83;;;1.90;99.90;;;;;;5083934;28;20226;-86
2023/12/06 00:43:56;;;;;;;12.07;11.67;;;1.90;99.90;;;;;;5099523;28;20320;-87
2023/12/06 00:46:25;;;;;;;12.37;11.90;;;1.80;99.90;;;;;;5104252;28;20226;-86
2023/12/06 00:49:05;;;;;;;11.90;11.50;;;1.90;99.90;;;;;;5104269;28;20236;-87
2023/12/06 00:51:36;;;;;;;12.07;11.67;;;1.90;99.90;;;;;;5104268;28;20236;-87
2023/12/06 00:54:04;;;;;;;12.20;11.80;;;1.90;99.90;;;;;;5104397;28;20240;-86
2023/12/06 00:56:42;;;;;;;12.10;11.70;;;1.90;99.90;;;;;;5104002;28;20236;-86
2023/12/06 00:59:12;;;;;;;12.07;11.67;;;1.80;99.90;;;;;;5104264;28;20243;-87
2023/12/06 01:01:41;;;;;;;12.07;11.67;;;1.90;99.90;;;;;;5104372;28;20245;-87
2023/12/06 01:04:21;;;;;;;12.20;11.80;;;1.80;99.90;;;;;;5104068;28;20260;-86
2023/12/06 01:06:51;;;;;;;12.37;11.87;;;1.80;99.90;;;;;;5103996;28;20300;-86
2023/12/06 01:09:19;;;;;;;12.30;11.83;;;1.90;99.90;;;;;;5104348;28;20233;-87
2023/12/06 01:11:48;;;;;;;12.03;11.63;;;1.90;99.90;;;;;;5104088;28;20232;-86
2023/12/06 01:14:27;;;;;;;12.63;12.13;;;1.80;99.90;;;;;;5104556;28;20287;-87
2023/12/06 01:16:55;;;;;;;12.10;11.70;;;1.80;99.90;;;;;;5104284;28;20230;-87
2023/12/06 01:19:35;;;;;;;12.47;11.97;;;1.80;99.90;;;;;;5106298;28;20237;-86
2023/12/06 01:22:05;;;;;;;12.43;11.93;;;1.80;99.90;;;;;;5108843;28;21006;-87
2023/12/06 01:24:33;;;;;;;12.30;11.80;;;1.80;99.90;;;;;;5104686;28;20222;-87
2023/12/06 01:27:12;;;;;;;12.40;11.90;;;1.80;99.90;;;;;;5110996;27;20213;-86
2023/12/06 01:29:40;;;;;;;12.63;12.13;;;1.80;99.90;;;;;;5108021;28;20221;-87
2023/12/06 01:32:12;;;;;;;12.33;11.83;;;1.80;99.90;;;;;;5105072;28;20225;-86
2023/12/06 01:34:40;;;;;;;12.30;11.80;;;1.80;99.90;;;;;;5104579;28;20247;-86
2023/12/06 01:40:06;;;;;;;12.33;11.83;;;1.70;99.90;;;;;;5104801;28;20671;-86
2023/12/06 01:42:33;;;;;;;12.60;12.10;;;1.70;99.90;;;;;;5104959;28;20236;-87
2023/12/06 01:45:13;;;;;;;12.30;11.87;;;1.70;99.90;;;;;;5104691;28;20996;-87
2023/12/06 01:47:42;;;;;;;12.53;12.03;;;1.70;99.90;;;;;;5105987;28;20213;-87
2023/12/06 01:50:12;;;;;;;12.70;12.20;;;1.70;99.90;;;;;;5111849;28;20233;-86
2023/12/06 01:52:43;;;;;;;12.33;11.83;;;1.60;99.90;;;;;;5107221;28;20225;-87
2023/12/06 01:55:11;;;;;;;11.73;11.33;;;1.70;99.90;;;;;;5107887;28;20225;-87
2023/12/06 01:57:39;;;;;;;12.37;11.87;;;1.60;99.90;;;;;;5107137;28;20221;-86
2023/12/06 02:00:09;;;;;;;12.40;11.90;;;1.60;99.90;;;;;;5106863;28;20238;-86
2023/12/06 02:02:38;;;;;;;12.07;11.67;;;1.60;99.90;;;;;;5107269;28;20239;-85
2023/12/06 02:05:09;;;;;;;12.40;11.90;;;1.60;99.90;;;;;;5107186;28;20229;-88
2023/12/06 02:07:37;;;;;;;12.27;11.80;;;1.50;99.90;;;;;;5107195;28;20213;-88
2023/12/06 02:10:10;;;;;;;12.03;11.63;;;1.60;99.90;;;;;;5107049;28;20242;-88
2023/12/06 02:12:38;;;;;;;11.93;11.53;;;1.60;99.90;;;;;;5107600;28;20257;-87
2023/12/06 02:15:18;;;;;;;12.30;11.90;;;1.60;99.90;;;;;;5107202;28;20255;-88
2023/12/06 02:17:45;;;;;;;12.00;11.60;;;1.60;99.90;;;;;;5107473;28;20218;-87
2023/12/06 02:20:13;;;;;;;12.00;11.60;;;1.60;99.90;;;;;;5107144;28;20237;-87
2023/12/06 02:22:44;;;;;;;12.03;11.63;;;1.60;99.90;;;;;;5107317;28;20287;-87
2023/12/06 02:28:09;;;;;;;12.40;11.90;;;1.70;99.90;;;;;;5107148;28;20228;-87
2023/12/06 02:30:37;;;;;;;12.03;11.63;;;1.70;99.90;;;;;;5103887;28;20248;-87
2023/12/06 02:33:17;;;;;;;12.30;11.80;;;1.60;99.90;;;;;;5106893;28;20237;-88
2023/12/06 02:38:33;;;;;;;12.30;11.87;;;1.60;99.90;;;;;;5106145;28;20267;-86
2023/12/06 02:43:48;;;;;;;12.50;12.00;;;1.60;99.90;;;;;;5106701;28;20223;-87
2023/12/06 02:46:27;;;;;;;12.30;11.83;;;1.70;99.90;;;;;;5107323;28;20253;-87
2023/12/06 02:48:56;;;;;;;12.43;11.93;;;1.70;99.90;;;;;;5106646;28;21002;-87
2023/12/06 02:54:07;;;;;;;12.07;11.67;;;1.60;99.90;;;;;;5106948;28;20229;-87
2023/12/06 02:56:38;;;;;;;12.50;12.00;;;1.70;99.90;;;;;;5106173;28;20272;-87
2023/12/06 02:59:16;;;;;;;12.23;11.83;;;1.70;99.90;;;;;;5106089;28;20291;-88
2023/12/06 03:04:41;;;;;;;12.13;11.73;;;1.70;99.90;;;;;;5105660;28;20236;-87
2023/12/06 03:07:09;;;;;;;11.93;11.53;;;1.70;99.90;;;;;;5106358;28;20232;-87
2023/12/06 03:09:37;;;;;;;12.37;11.97;;;1.70;99.90;;;;;;5105597;28;20244;-87
2023/12/06 03:12:16;;;;;;;12.03;11.63;;;1.80;99.90;;;;;;5106366;28;20230;-87
2023/12/06 03:14:45;;;;;;;12.40;11.90;;;1.80;99.90;;;;;;5106040;28;20233;-87
2023/12/06 03:17:14;;;;;;;12.07;11.67;;;1.80;99.90;;;;;;5105892;28;20229;-87
2023/12/06 03:19:53;;;;;;;12.30;11.80;;;1.80;99.90;;;;;;5113022;27;20221;-87
2023/12/06 03:22:22;;;;;;;12.50;12.00;;;1.80;99.90;;;;;;5106565;28;20238;-88
2023/12/06 03:25:01;;;;;;;12.53;12.03;;;1.90;99.90;;;;;;5105727;28;20233;-87
2023/12/06 03:27:33;;;;;;;12.33;11.83;;;1.90;99.90;;;;;;5105445;28;20233;-88
2023/12/06 03:30:00;;;;;;;12.10;11.70;;;1.90;99.90;;;;;;5105627;28;20237;-87
2023/12/06 03:32:28;;;;;;;12.13;11.73;;;1.90;99.90;;;;;;5105642;28;20233;-88
2023/12/06 03:35:07;;;;;;;12.00;11.60;;;1.90;99.90;;;;;;5105868;28;20311;-88
2023/12/06 03:37:36;;;;;;;12.07;11.67;;;2.00;99.90;;;;;;5105492;28;20324;-88
2023/12/06 03:40:05;;;;;;;12.17;11.77;;;2.00;99.90;;;;;;5105081;28;20229;-87
2023/12/06 03:42:38;;;;;;;12.70;12.20;;;2.00;99.90;;;;;;5105420;28;20246;-88
2023/12/06 03:45:07;;;;;;;12.03;11.63;;;2.00;99.90;;;;;;5105121;28;20233;-88
2023/12/06 03:47:35;;;;;;;12.10;11.70;;;2.00;99.90;;;;;;5105786;28;20226;-88
2023/12/06 03:50:03;;;;;;;12.60;12.10;;;2.00;99.90;;;;;;5111490;28;20222;-87
2023/12/06 03:52:43;;;;;;;12.60;12.10;;;2.10;99.90;;;;;;5110533;28;20236;-87
2023/12/06 03:55:11;;;;;;;11.83;11.43;;;2.10;99.90;;;;;;5105941;28;20233;-88
2023/12/06 03:57:44;;;;;;;11.90;11.50;;;2.10;99.90;;;;;;5105227;28;20237;-88
2023/12/06 04:00:13;;;;;;;12.20;11.80;;;2.10;99.90;;;;;;5104736;28;20233;-88
2023/12/06 04:02:40;;;;;;;12.20;11.80;;;2.10;99.90;;;;;;5105545;28;20323;-88
2023/12/06 04:05:09;;;;;;;12.00;11.60;;;2.10;99.90;;;;;;5105634;28;20229;-88
2023/12/06 04:07:38;;;;;;;12.00;11.60;;;2.10;99.90;;;;;;5104409;28;20263;-87
2023/12/06 04:10:08;;;;;;;12.10;11.70;;;2.10;99.90;;;;;;5104475;28;20234;-88
2023/12/06 04:12:46;;;;;;;11.90;11.50;;;2.10;99.90;;;;;;5104661;28;20217;-88
2023/12/06 04:15:18;;;;;;;12.27;11.87;;;2.10;99.90;;;;;;5104008;28;20229;-88
2023/12/06 04:17:45;;;;;;;12.40;11.97;;;2.20;99.90;;;;;;5104245;28;20241;-88
2023/12/06 04:20:18;;;;;;;12.00;11.60;;;2.20;99.90;;;;;;5104930;28;20249;-88
2023/12/06 04:22:45;;;;;;;11.90;11.50;;;2.20;99.90;;;;;;5114820;27;20343;-85
2023/12/06 04:25:14;;;;;;;12.27;11.87;;;2.20;99.90;;;;;;5113180;27;20255;-86
2023/12/06 04:27:43;;;;;;;12.10;11.70;;;2.20;99.90;;;;;;5106147;28;20229;-86
2023/12/06 04:30:47;;;;;;;12.10;11.70;;;2.20;99.90;;;;;;5105239;28;20226;-89
2023/12/06 04:36:13;;;;;;;12.13;11.73;;;2.10;99.90;;;;;;5098211;28;20235;-86
2023/12/06 04:44:09;;;;;;;12.00;11.60;;;2.00;99.90;;;;;;5104664;28;20245;-87
2023/12/06 04:46:41;;;;;;;11.70;11.30;;;2.00;99.90;;;;;;5106441;28;20225;-87
2023/12/06 04:49:15;;;;;;;11.70;11.30;;;2.00;99.90;;;;;;5104357;28;20693;-88
2023/12/06 04:52:24;;;;;;;11.70;11.30;;;2.00;99.90;;;;;;5105127;28;20228;-87
2023/12/06 04:54:51;;;;;;;11.40;11.00;;;2.00;99.90;;;;;;5104437;28;20260;-88
2023/12/06 04:57:20;;;;;;;11.90;11.50;;;2.00;99.90;;;;;;5103496;28;20264;-87
2023/12/06 05:02:39;;;;;;;11.93;11.53;;;2.00;99.90;;;;;;5105536;28;20256;-88
2023/12/06 05:05:07;;;;;;;11.87;11.47;;;2.00;99.90;;;;;;5105276;28;20229;-87
2023/12/06 05:07:35;;;;;;;11.90;11.50;;;1.90;99.90;;;;;;5104778;28;20255;-87
2023/12/06 05:10:14;;;;;;;11.90;11.50;;;1.90;99.90;;;;;;5104035;28;20229;-87
2023/12/06 05:12:43;;;;;;;12.00;11.60;;;1.90;99.90;;;;;;5112194;27;20229;-87
2023/12/06 05:15:12;;;;;;;11.93;11.53;;;1.80;99.90;;;;;;5105292;28;20295;-87
2023/12/06 05:20:38;;;;;;;12.00;11.60;;;1.80;99.90;;;;;;5104081;28;20271;-86
2023/12/06 05:23:17;;;;;;;12.00;11.60;;;1.80;99.90;;;;;;5104710;28;20221;-87
2023/12/06 05:25:46;;;;;;;11.70;11.30;;;1.80;99.90;;;;;;5104778;28;20279;-88
2023/12/06 05:28:15;;;;;;;11.80;11.40;;;1.90;99.90;;;;;;5107908;28;20237;-87
2023/12/06 05:30:54;;;;;;;11.80;11.40;;;1.80;99.90;;;;;;5107705;28;20229;-87
2023/12/06 05:33:25;;;;;;;12.00;11.60;;;1.90;99.90;;;;;;5107641;28;20291;-87
2023/12/06 05:35:52;;;;;;;11.67;11.27;;;1.90;99.90;;;;;;5107720;28;20226;-87
2023/12/06 05:38:21;;;;;;;11.70;11.30;;;1.90;99.90;;;;;;5108013;28;20229;-87
2023/12/06 05:43:30;;;;;;;11.70;11.30;;;1.90;99.90;;;;;;5107683;28;20308;-88
2023/12/06 05:45:58;;;;;;;12.03;11.63;;;1.90;99.90;;;;;;5107405;28;20224;-87
2023/12/06 05:48:31;;;;;;;12.10;11.70;;;1.90;99.90;;;;;;5108236;28;20234;-87
2023/12/06 05:53:44;;;;;;;11.77;11.37;;;1.90;99.90;;;;;;5107911;28;20285;-87
2023/12/06 05:56:26;;;;;;;11.53;11.13;;;2.00;99.90;;;;;;5106789;28;20237;-87
2023/12/06 05:58:53;;;;;;;11.80;11.40;;;2.00;99.90;;;;;;5107090;28;20224;-87
2023/12/06 06:01:20;;;;;;;11.60;11.20;;;2.00;99.90;;;;;;5142334;22;20240;-79
2023/12/06 06:03:48;;;;;;;11.43;11.03;;;2.10;99.90;;;;;;5137514;27;20239;-78
2023/12/06 06:06:16;;;;;;;11.57;11.17;;;2.00;99.90;;;;;;5141011;27;20251;-79
2023/12/06 06:08:43;;;;;;;11.40;11.00;;;2.10;99.90;;;;;;5144369;27;20305;-80
2023/12/06 06:11:10;;;;;;;11.70;11.30;;;2.10;99.90;;;;;;5141036;27;20238;-79
2023/12/06 06:13:38;;;;;;;11.27;10.87;;;2.10;99.90;;;;;;5148646;27;20208;-80
2023/12/06 06:16:06;;;;;;;11.43;11.03;;;2.10;99.90;;;;;;5143425;27;20228;-80
2023/12/06 06:18:33;;;;;;;11.37;10.97;;;2.10;99.90;;;;;;5134536;27;20311;-79
2023/12/06 06:21:05;;;;;;;11.00;10.60;;;2.10;99.90;;;;;;5126832;28;20229;-80
2023/12/06 06:23:33;;;;;;;11.20;10.80;;;2.10;99.90;;;;;;5126101;27;20221;-79
2023/12/06 06:26:00;;;;;;;11.33;10.93;;;2.10;99.90;;;;;;5126129;28;20264;-79
2023/12/06 06:28:27;;;;;;;11.33;10.93;;;2.10;99.90;;;;;;5125985;28;20233;-80
2023/12/06 06:30:54;;;;;;;11.30;10.90;;;2.20;99.90;;;;;;5125485;28;20251;-79
2023/12/06 06:33:22;;;;;;;11.30;10.90;;;2.20;99.90;;;;;;5129467;28;20370;-80
2023/12/06 06:35:49;;;;;;;11.47;11.07;;;2.20;99.90;;;;;;5126520;27;20237;-81
2023/12/06 06:38:18;;;;;;;11.20;10.80;;;2.20;99.90;;;;;;5126360;27;20243;-79
2023/12/06 06:40:45;;;;;;;11.37;10.97;;;2.20;99.90;;;;;;5125650;28;20233;-81
2023/12/06 06:43:12;;;;;;;11.40;11.00;;;2.20;99.90;;;;;;5126001;28;20221;-80
2023/12/06 06:45:42;;;;;;;11.43;11.03;;;2.30;99.90;;;;;;5125826;28;20243;-80
2023/12/06 06:48:10;;;;;;;11.50;11.10;;;2.30;99.90;;;;;;5125649;27;20659;-80
2023/12/06 06:50:37;;;;;;;11.70;11.30;;;2.30;99.90;;;;;;5125003;27;20240;-80
2023/12/06 06:53:04;;;;;;;11.83;11.43;;;2.30;99.90;;;;;;5132071;27;20221;-80
2023/12/06 06:55:33;;;;;;;11.73;11.33;;;2.30;99.90;;;;;;5135837;27;20220;-80
2023/12/06 06:58:03;;;;;;;11.33;10.93;;;2.30;99.90;;;;;;5131959;27;20228;-80
2023/12/06 07:00:30;;;;;;;11.50;11.10;;;2.40;99.90;;;;;;5131488;27;20224;-78
2023/12/06 07:02:57;;;;;;;11.40;11.00;;;2.40;99.90;;;;;;5139703;27;20242;-79
2023/12/06 07:05:24;;;;;;;11.60;11.20;;;2.40;99.90;;;;;;5148520;27;20231;-79
2023/12/06 07:07:52;;;;;;;11.50;11.10;;;2.40;99.90;;;;;;5145537;27;20432;-78
2023/12/06 07:10:20;;;;;;;11.77;11.37;;;2.40;99.90;;;;;;5142410;27;20224;-79
2023/12/06 07:12:48;;;;;;;11.97;11.57;;;2.40;99.90;;;;;;5143806;27;20224;-79
2023/12/06 07:15:16;;;;;;;11.77;11.37;;;2.40;99.90;;;;;;5143177;27;20277;-78
2023/12/06 07:17:44;;;;;;;11.60;11.20;;;2.50;99.90;;;;;;5141902;27;20231;-78
2023/12/06 07:20:12;;;;;;;11.87;11.47;;;2.40;99.90;;;;;;5131148;27;20226;-78
2023/12/06 07:22:40;;;;;;;11.53;11.13;;;2.40;99.90;;;;;;5107425;28;20225;-77
2023/12/06 07:25:08;;;;;;;11.67;11.27;;;2.40;99.90;;;;;;5101231;28;20236;-78
2023/12/06 07:27:35;;;;;;;11.73;11.33;;;2.40;99.90;;;;;;5101821;28;20236;-77
2023/12/06 07:30:05;;;;;;;12.10;11.70;;;2.40;99.90;;;;;;5101324;28;20248;-78
2023/12/06 07:32:32;;;;;;;11.93;11.53;;;2.50;99.90;;;;;;5099779;28;20247;-77
2023/12/06 07:35:01;;;;;;;11.93;11.53;;;2.40;99.90;;;;;;5101441;28;20268;-77
2023/12/06 07:37:29;;;;;;;12.10;11.70;;;2.50;99.90;;;;;;5101380;28;20271;-78
2023/12/06 07:39:56;;;;;;;11.60;11.20;;;2.50;99.90;;;;;;5102978;28;20257;-78
2023/12/06 07:42:23;;;;;;;11.70;11.30;;;2.50;99.90;;;;;;5103953;28;20252;-77
2023/12/06 07:44:50;;;;;;;11.67;11.27;;;2.50;99.90;;;;;;5102193;28;20230;-78
2023/12/06 07:47:19;;;;;;;11.70;11.30;;;2.50;99.90;;;;;;5100302;28;20264;-78
2023/12/06 07:49:46;;;;;;;11.50;11.10;;;2.50;99.90;;;;;;5099921;28;20226;-77
2023/12/06 07:52:13;;;;;;;11.40;11.00;;;2.50;99.90;;;;;;5098532;28;20334;-77
2023/12/06 07:54:41;;;;;;;11.63;11.23;;;2.60;99.90;;;;;;5099071;28;20285;-77
2023/12/06 07:57:08;;;;;;;11.57;11.17;;;2.60;99.90;;;;;;5101646;28;20264;-78
2023/12/06 07:59:35;;;;;;;11.60;11.20;;;2.60;99.90;;;;;;5102670;28;20234;-78
2023/12/06 08:02:02;;;;;;;11.53;11.13;;;2.60;99.90;;;;;;5101910;28;20267;-77
2023/12/06 08:04:31;;;;;;;11.90;11.50;;;2.60;99.90;;;;;;5102888;28;20238;-78
2023/12/06 08:06:58;;;;;;;11.87;11.47;;;2.60;99.90;;;;;;5103298;28;20252;-77
2023/12/06 08:09:27;;;;;;;11.50;11.10;;;2.60;99.90;;;;;;5114113;28;20260;-77
2023/12/06 08:11:54;;;;;;;11.57;11.17;;;2.60;99.90;;;;;;5107326;28;20224;-78
2023/12/06 08:14:22;;;;;;;11.80;11.40;;;2.60;99.90;;;;;;5118670;27;20233;-77
2023/12/06 08:16:49;;;;;;;11.90;11.50;;;2.60;99.90;;;;;;5119178;27;20216;-76
2023/12/06 08:19:16;;;;;;;11.90;11.50;;;2.60;99.90;;;;;;5117001;27;20229;-77
2023/12/06 08:21:45;;;;;;;11.73;11.33;;;2.70;99.90;;;;;;5119173;27;20244;-76
2023/12/06 08:24:12;;;;;;;11.60;11.20;;;2.70;99.90;;;;;;5119234;27;20248;-77
2023/12/06 08:26:39;;;;;;;11.63;11.23;;;2.70;99.90;;;;;;5119215;27;20233;-77
2023/12/06 08:29:06;;;;;;;11.70;11.30;;;2.70;99.90;;;;;;5118994;27;20221;-77
2023/12/06 08:31:33;;;;;;;11.40;11.00;;;2.70;99.90;;;;;;5117676;27;20219;-77
2023/12/06 08:34:00;;;;;;;11.23;10.83;;;2.70;99.90;;;;;;5120001;27;20236;-76
2023/12/06 08:36:27;;;;;;;12.00;11.60;;;2.70;99.90;;;;;;5119483;27;20377;-76
2023/12/06 08:38:56;;;;;;;12.30;11.90;;;2.70;99.90;;;;;;5119942;27;20248;-77
2023/12/06 08:41:24;;;;;;;11.90;11.50;;;2.70;99.90;;;;;;5119900;27;20205;-76
2023/12/06 08:43:51;;;;;;;11.90;11.50;;;2.80;99.90;;;;;;5122028;27;20241;-77
2023/12/06 08:46:18;;;;;;;12.07;11.67;;;2.80;99.90;;;;;;5120120;27;20214;-77
2023/12/06 08:48:45;;;;;;;12.30;11.90;;;2.80;99.90;;;;;;5120012;27;20229;-77
2023/12/06 08:51:13;;;;;;;11.53;11.13;;;2.80;99.90;;;;;;5118828;27;20210;-78
2023/12/06 08:53:40;;;;;;;12.10;11.70;;;2.80;99.90;;;;;;5119230;27;20230;-77
2023/12/06 08:56:09;;;;;;;11.67;11.27;;;2.70;99.90;;;;;;5120577;27;20213;-76
2023/12/06 08:58:37;;;;;;;11.47;11.07;;;2.70;99.90;;;;;;5119877;27;20233;-77
2023/12/06 09:01:04;;;;;;;11.40;11.00;;;2.80;99.90;;;;;;5119759;27;20222;-81
2023/12/06 09:03:31;;;;;;;11.50;11.10;;;2.70;99.90;;;;;;5124407;27;20221;-83
2023/12/06 09:05:59;;;;;;;11.37;10.97;;;2.70;99.90;;;;;;5124050;27;20219;-79
2023/12/06 09:08:26;;;;;;;11.33;10.93;;;2.80;99.90;;;;;;5123745;27;20247;-82
2023/12/06 09:10:54;;;;;;;11.20;10.80;;;2.80;99.90;;;;;;5123445;27;20229;-79
2023/12/06 09:13:22;;;;;;;11.20;10.80;;;2.80;99.90;;;;;;5147372;27;20299;-78
2023/12/06 09:15:50;;;;;;;11.20;10.80;;;2.80;99.90;;;;;;5164422;27;20228;-78
2023/12/06 09:18:17;;;;;;;11.47;11.07;;;2.90;99.90;;;;;;5157337;27;20231;-80
2023/12/06 09:20:44;;;;;;;11.17;10.77;;;2.90;99.90;;;;;;5128492;27;20216;-79
2023/12/06 09:23:11;;;;;;;11.07;10.67;;;2.90;99.90;;;;;;5135116;27;20228;-80
2023/12/06 09:25:39;;;;;;;10.90;10.50;;;3.00;99.90;;;;;;5131347;27;20247;-81
2023/12/06 09:28:06;;;;;;;11.27;10.87;;;3.00;99.90;;;;;;5128090;27;20224;-79
2023/12/06 09:30:35;;;;;;;11.30;10.90;;;3.00;99.90;;;;;;5133637;27;20228;-80
2023/12/06 09:33:03;;;;;;;11.30;10.90;;;3.00;99.90;;;;;;5133105;27;20213;-79
2023/12/06 09:35:30;;;;;;;11.00;10.60;;;3.00;99.90;;;;;;5128116;27;20226;-80
2023/12/06 09:37:57;;;;;;;11.30;10.90;;;3.10;99.90;;;;;;5131657;27;20266;-79
2023/12/06 09:40:25;;;;;;;11.20;10.80;;;3.10;99.90;;;;;;5128096;27;20256;-79
2023/12/06 09:42:59;;;;;;;11.10;10.70;;;3.10;99.90;;;;;;5123119;27;20236;-79
2023/12/06 09:45:27;;;;;;;11.00;10.60;;;3.10;99.90;;;;;;5129891;27;20258;-80
2023/12/06 09:47:56;;;;;;;11.13;10.73;;;3.10;99.90;;;;;;5122095;27;20236;-79
2023/12/06 09:50:26;;;;;;;11.07;10.67;;;3.10;99.90;;;;;;5117080;27;20214;-79
2023/12/06 09:52:54;;;;;;;11.00;10.60;;;3.20;99.90;;;;;;5117108;27;20296;-79
2023/12/06 09:55:23;;;;;;;11.40;11.00;;;3.20;99.90;;;;;;5120347;27;20232;-79
2023/12/06 09:57:52;;;;;;;11.30;10.90;;;3.30;99.90;;;;;;5118036;27;20367;-80
2023/12/06 10:00:19;;;;;;;11.30;10.90;;;3.30;99.90;;;;;;5115384;27;20221;-78
2023/12/06 10:02:57;;;;;;;11.30;10.90;;;3.40;99.90;;;;;;5113414;27;20275;-78
2023/12/06 10:05:25;;;;;;;11.07;10.67;;;3.50;99.90;;;;;;5114727;27;20229;-78
2023/12/06 10:07:53;;;;;;;11.30;10.90;;;3.60;99.90;;;;;;5127660;27;20232;-77
2023/12/06 10:10:22;;;;;;;11.07;10.67;;;3.60;99.90;;;;;;5126342;28;20225;-78
2023/12/06 10:12:52;;;;;;;10.80;10.50;;;3.60;99.90;;;;;;5127346;27;20232;-78
2023/12/06 10:15:21;;;;;;;10.70;10.40;;;3.70;99.90;;;;;;5125367;28;20236;-78
2023/12/06 10:17:48;;;;;;;10.77;10.47;;;3.70;99.90;;;;;;5126943;28;20252;-78
2023/12/06 10:20:20;;;;;;;10.60;10.30;;;3.80;99.90;;;;;;5126042;28;20248;-78
2023/12/06 10:22:48;;;;;;;10.70;10.40;;;3.80;99.90;;;;;;5117395;28;20230;-77
2023/12/06 10:25:16;;;;;;;10.70;10.40;;;3.90;99.90;;;;;;5118900;28;20237;-78
2023/12/06 10:27:45;;;;;;;11.00;10.60;;;4.00;99.90;;;;;;5112506;28;20279;-79
2023/12/06 10:30:20;;;;;;;10.97;10.57;;;4.10;99.90;;;;;;5105946;28;20205;-78
2023/12/06 10:32:48;;;;;;;11.17;10.77;;;4.10;99.90;;;;;;5107583;28;20229;-78
2023/12/06 10:35:17;;;;;;;11.17;10.77;;;4.10;99.90;;;;;;5107265;28;20229;-78
2023/12/06 10:37:45;;;;;;;11.00;10.60;;;4.10;99.90;;;;;;5102318;28;20229;-77
2023/12/06 10:40:14;;;;;;;11.40;11.00;;;4.00;99.90;;;;;;5102367;28;20264;-78
2023/12/06 10:42:51;;;;;;;11.17;10.77;;;4.00;99.90;;;;;;5101544;28;20233;-77
2023/12/06 10:45:20;;;;;;;11.27;10.87;;;4.10;99.90;;;;;;5123582;28;20296;-78
2023/12/06 10:47:50;;;;;;;11.13;10.73;;;4.00;99.90;;;;;;5120494;27;20272;-78
2023/12/06 10:50:20;;;;;;;11.03;10.63;;;3.90;99.90;;;;;;5132414;27;20244;-78
2023/12/06 10:52:48;;;;;;;11.17;10.77;;;3.90;99.90;;;;;;5126681;27;20282;-78
2023/12/06 10:55:17;;;;;;;11.10;10.70;;;3.90;99.90;;;;;;5125925;28;20320;-80
2023/12/06 10:57:46;;;;;;;11.20;10.80;;;3.90;99.90;;;;;;5125072;28;20336;-78
2023/12/06 11:00:15;;;;;;;11.17;10.77;;;4.00;99.90;;;;;;5125507;28;20229;-78
2023/12/06 11:02:43;;;;;;;11.10;10.70;;;4.00;99.90;;;;;;5126661;28;20240;-78
2023/12/06 11:05:12;;;;;;;11.10;10.70;;;4.00;99.90;;;;;;5125436;27;20231;-78
2023/12/06 11:08:04;;;;;;;10.80;10.50;;;4.00;99.90;;;;;;5126991;28;20224;-78
2023/12/06 11:10:44;;;;;;;11.20;10.80;;;4.10;99.90;;;;;;5127204;28;20229;-79
2023/12/06 11:13:28;;;;;;;11.07;10.67;;;4.10;99.90;;;;;;5127447;28;20239;-80
2023/12/06 11:16:09;;;;;;;10.63;10.33;;;4.10;99.90;;;;;;5125758;28;20240;-78
2023/12/06 11:18:46;;;;;;;10.77;10.47;;;4.10;99.90;;;;;;5126172;27;21033;-78
2023/12/06 11:21:14;;;;;;;10.87;10.57;;;4.10;99.90;;;;;;5123487;28;20232;-78
2023/12/06 11:23:46;;;;;;;11.13;10.73;;;4.10;99.90;;;;;;5117644;27;20256;-78
2023/12/06 11:26:14;;;;;;;10.80;10.50;;;4.10;99.90;;;;;;5125466;27;20350;-79
2023/12/06 11:28:43;;;;;;;10.60;10.30;;;4.10;99.90;;;;;;5138881;27;20297;-78
2023/12/06 11:31:14;;;;;;;10.60;10.30;;;4.10;99.90;;;;;;5138757;27;20216;-79
2023/12/06 11:33:41;;;;;;;10.80;10.50;;;4.00;99.90;;;;;;5108893;27;20230;-79
2023/12/06 11:36:16;;;;;;;10.73;10.43;;;4.10;99.90;;;;;;5127248;27;20315;-80
2023/12/06 11:38:45;;;;;;;10.70;10.40;;;4.10;99.90;;;;;;5140626;27;20231;-79
2023/12/06 11:41:16;;;;;;;10.70;10.40;;;4.10;99.90;;;;;;5127205;28;20217;-79
2023/12/06 11:43:49;;;;;;;10.50;10.20;;;4.00;99.90;;;;;;5127147;28;20228;-79
2023/12/06 11:46:17;;;;;;;10.57;10.27;;;4.00;99.90;;;;;;5127673;28;20228;-79
2023/12/06 11:48:48;;;;;;;10.70;10.40;;;4.10;99.90;;;;;;5127164;28;20240;-79
2023/12/06 11:51:20;;;;;;;10.77;10.47;;;4.10;99.90;;;;;;5112467;27;20288;-80
2023/12/06 11:53:49;;;;;;;10.63;10.33;;;4.10;99.90;;;;;;5115939;28;20228;-79
2023/12/06 11:56:22;;;;;;;10.60;10.30;;;4.10;99.90;;;;;;5124420;27;20216;-80
2023/12/06 11:58:51;;;;;;;10.53;10.23;;;4.10;99.90;;;;;;5123921;28;21092;-79
2023/12/06 12:01:18;;;;;;;10.67;10.37;;;4.00;99.90;;;;;;5124213;28;20235;-79
2023/12/06 12:03:48;;;;;;;10.47;10.17;;;3.90;99.90;;;;;;5123430;28;20236;-79
2023/12/06 12:06:16;;;;;;;10.67;10.37;;;3.90;99.90;;;;;;5122989;27;20228;-79
2023/12/06 12:08:44;;;;;;;10.70;10.40;;;3.80;99.90;;;;;;5123865;27;20291;-79
2023/12/06 12:11:13;;;;;;;10.47;10.17;;;3.80;99.90;;;;;;5120529;27;20217;-79
2023/12/06 12:13:42;;;;;;;10.90;10.60;;;3.80;99.90;;;;;;5120316;27;20239;-78
2023/12/06 12:16:12;;;;;;;10.60;10.30;;;3.80;99.90;;;;;;5122214;27;20220;-78
2023/12/06 12:18:40;;;;;;;10.70;10.40;;;3.80;99.90;;;;;;5115892;27;20235;-79
2023/12/06 12:21:10;;;;;;;10.63;10.33;;;3.70;99.90;;;;;;5115949;27;20248;-79
2023/12/06 12:23:37;;;;;;;10.77;10.47;;;3.70;99.90;;;;;;5115188;27;20225;-78
2023/12/06 12:26:05;;;;;;;10.70;10.40;;;3.70;99.90;;;;;;5124240;27;20299;-78
2023/12/06 12:28:33;;;;;;;10.93;10.57;;;3.70;99.90;;;;;;5110890;28;20283;-78
2023/12/06 12:31:03;;;;;;;11.00;10.60;;;3.70;99.90;;;;;;5109967;28;20238;-79
2023/12/06 12:33:31;;;;;;;11.13;10.73;;;3.70;99.90;;;;;;5103250;28;20240;-79
2023/12/06 12:35:59;;;;;;;10.80;10.50;;;3.70;99.90;;;;;;5103938;28;20237;-79
2023/12/06 12:38:27;;;;;;;11.13;10.73;;;3.70;99.90;;;;;;5103973;28;20233;-81
2023/12/06 12:40:56;;;;;;;11.07;10.67;;;3.70;99.90;;;;;;5104129;28;20230;-80
2023/12/06 12:43:23;;;;;;;11.00;10.60;;;3.70;99.90;;;;;;5105031;28;20225;-79
2023/12/06 12:45:52;;;;;;;11.17;10.77;;;3.60;99.90;;;;;;5104593;28;20225;-78
2023/12/06 12:48:19;;;;;;;10.73;10.43;;;3.60;99.90;;;;;;5102879;28;20225;-79
2023/12/06 12:50:47;;;;;;;10.80;10.50;;;3.50;99.90;;;;;;5103910;28;20271;-79
2023/12/06 12:53:14;;;;;;;10.50;10.20;;;3.30;99.90;;;;;;5103800;28;20233;-79
2023/12/06 12:55:42;;;;;;;10.67;10.37;;;3.20;99.90;;;;;;5137373;27;20228;-79
2023/12/06 12:58:09;;;;;;;10.97;10.57;;;3.20;99.90;;;;;;5132711;27;20260;-79
2023/12/06 13:00:38;;;;;;;11.20;10.80;;;3.20;99.90;;;;;;5123387;27;21126;-80
2023/12/06 13:03:07;;;;;;;10.90;10.53;;;3.10;99.90;;;;;;5124425;27;20219;-80
2023/12/06 13:05:37;;;;;;;10.70;10.40;;;3.10;99.90;;;;;;5128681;28;20256;-80
2023/12/06 13:08:04;;;;;;;10.90;10.60;;;3.00;99.90;;;;;;5127280;27;20251;-80
2023/12/06 13:10:32;;;;;;;11.00;10.60;;;2.90;99.90;;;;;;5124589;28;20221;-81
2023/12/06 13:13:00;;;;;;;11.20;10.80;;;2.80;99.90;;;;;;5124346;28;20240;-80
2023/12/06 13:15:27;;;;;;;11.10;10.70;;;2.80;99.90;;;;;;5125649;28;20313;-80
2023/12/06 13:17:54;;;;;;;10.80;10.50;;;2.60;99.90;;;;;;5123804;28;20224;-79
2023/12/06 13:20:23;;;;;;;11.20;10.80;;;2.60;99.90;;;;;;5121362;27;20239;-79
2023/12/06 13:22:50;;;;;;;10.60;10.30;;;2.60;99.90;;;;;;5123509;27;20228;-80
2023/12/06 13:25:18;;;;;;;10.70;10.40;;;2.60;99.90;;;;;;5125054;28;20232;-79
2023/12/06 13:27:46;;;;;;;10.80;10.50;;;2.50;99.90;;;;;;5123803;28;20248;-79
2023/12/06 13:30:14;;;;;;;10.50;10.20;;;2.40;99.90;;;;;;5122696;27;20236;-80
2023/12/06 13:32:41;;;;;;;10.43;10.13;;;2.30;99.90;;;;;;5113901;27;20233;-80